sensor_id;sensor_type;location;lat;lon;timestamp;pressure;altitude;pressure_sealevel;temperature;humidity
7524;BME280;3803;51.666;7.630;2023-07-09T00:00:18;101154.19;;;22.84;54.16
7524;BME280;3803;51.666;7.630;2023-07-09T00:00:39;101152.41;;;22.84;54.20
7524;BME280;3803;51.666;7.630;2023-07-09T00:01:00;101169.22;;;22.88;54.20
7524;BME280;3803;51.666;7.630;2023-07-09T00:01:21;101166.53;;;22.88;54.16
7524;BME280;3803;51.666;7.630;2023-07-09T00:01:42;101155.06;;;22.84;54.33
7524;BME280;3803;51.666;7.630;2023-07-09T00:02:02;101162.13;;;22.87;54.43
7524;BME280;3803;51.666;7.630;2023-07-09T00:02:25;101170.03;;;22.90;54.33
7524;BME280;3803;51.666;7.630;2023-07-09T00:02:46;101160.31;;;22.89;54.23
7524;BME280;3803;51.666;7.630;2023-07-09T00:03:09;101167.38;;;22.90;54.22
7524;BME280;3803;51.666;7.630;2023-07-09T00:03:31;101157.72;;;22.84;53.98
7524;BME280;3803;51.666;7.630;2023-07-09T00:03:51;101155.16;;;22.80;54.03
7524;BME280;3803;51.666;7.630;2023-07-09T00:04:14;101160.47;;;22.80;54.39
7524;BME280;3803;51.666;7.630;2023-07-09T00:04:34;101152.56;;;22.75;54.26
7524;BME280;3803;51.666;7.630;2023-07-09T00:04:55;101157.00;;;22.74;54.44
7524;BME280;3803;51.666;7.630;2023-07-09T00:05:16;101160.50;;;22.77;54.62
7524;BME280;3803;51.666;7.630;2023-07-09T00:05:37;101149.94;;;22.73;54.61
7524;BME280;3803;51.666;7.630;2023-07-09T00:05:58;101148.19;;;22.71;54.73
7524;BME280;3803;51.666;7.630;2023-07-09T00:06:19;101158.78;;;22.74;54.52
7524;BME280;3803;51.666;7.630;2023-07-09T00:06:40;101165.84;;;22.77;54.52
7524;BME280;3803;51.666;7.630;2023-07-09T00:07:03;101158.81;;;22.72;54.42
7524;BME280;3803;51.666;7.630;2023-07-09T00:07:28;101160.59;;;22.72;54.58
7524;BME280;3803;51.666;7.630;2023-07-09T00:07:50;101164.97;;;22.76;54.75
7524;BME280;3803;51.666;7.630;2023-07-09T00:08:28;101159.69;;;22.73;55.00
7524;BME280;3803;51.666;7.630;2023-07-09T00:08:49;101160.50;;;22.78;55.20
7524;BME280;3803;51.666;7.630;2023-07-09T00:09:21;101166.72;;;22.79;55.17
7524;BME280;3803;51.666;7.630;2023-07-09T00:09:42;101165.81;;;22.80;55.31
7524;BME280;3803;51.666;7.630;2023-07-09T00:10:03;101149.94;;;22.73;55.25
7524;BME280;3803;51.666;7.630;2023-07-09T00:10:24;101161.34;;;22.80;55.35
7524;BME280;3803;51.666;7.630;2023-07-09T00:10:44;101165.72;;;22.84;55.22
7524;BME280;3803;51.666;7.630;2023-07-09T00:11:05;101151.69;;;22.74;54.94
7524;BME280;3803;51.666;7.630;2023-07-09T00:11:26;101167.50;;;22.84;54.98
7524;BME280;3803;51.666;7.630;2023-07-09T00:11:47;101148.13;;;22.74;54.93
7524;BME280;3803;51.666;7.630;2023-07-09T00:12:13;101164.84;;;22.82;54.95
7524;BME280;3803;51.666;7.630;2023-07-09T00:12:34;101164.06;;;22.79;54.82
7524;BME280;3803;51.666;7.630;2023-07-09T00:12:55;101162.31;;;22.74;54.94
7524;BME280;3803;51.666;7.630;2023-07-09T00:13:16;101159.66;;;22.74;55.09
7524;BME280;3803;51.666;7.630;2023-07-09T00:13:36;101157.00;;;22.74;55.20
7524;BME280;3803;51.666;7.630;2023-07-09T00:13:57;101162.41;;;22.71;55.02
7524;BME280;3803;51.666;7.630;2023-07-09T00:14:18;101156.19;;;22.69;55.31
7524;BME280;3803;51.666;7.630;2023-07-09T00:14:39;101167.66;;;22.74;55.44
7524;BME280;3803;51.666;7.630;2023-07-09T00:15:00;101143.88;;;22.64;55.31
7524;BME280;3803;51.666;7.630;2023-07-09T00:15:20;101163.25;;;22.72;55.23
7524;BME280;3803;51.666;7.630;2023-07-09T00:15:41;101162.41;;;22.71;55.07
7524;BME280;3803;51.666;7.630;2023-07-09T00:16:10;101164.16;;;22.72;55.32
7524;BME280;3803;51.666;7.630;2023-07-09T00:16:32;101154.44;;;22.68;55.36
7524;BME280;3803;51.666;7.630;2023-07-09T00:16:53;101150.03;;;22.67;55.25
7524;BME280;3803;51.666;7.630;2023-07-09T00:17:26;101165.00;;;22.74;55.50
7524;BME280;3803;51.666;7.630;2023-07-09T00:17:47;101156.25;;;22.68;55.57
7524;BME280;3803;51.666;7.630;2023-07-09T00:18:09;101163.28;;;22.70;55.37
7524;BME280;3803;51.666;7.630;2023-07-09T00:18:30;101155.41;;;22.64;55.62
7524;BME280;3803;51.666;7.630;2023-07-09T00:18:50;101158.03;;;22.66;55.57
7524;BME280;3803;51.666;7.630;2023-07-09T00:19:14;101164.19;;;22.69;55.80
7524;BME280;3803;51.666;7.630;2023-07-09T00:19:37;101159.00;;;22.60;56.13
7524;BME280;3803;51.666;7.630;2023-07-09T00:19:57;101165.16;;;22.65;56.18
7524;BME280;3803;51.666;7.630;2023-07-09T00:20:18;101156.38;;;22.58;55.90
7524;BME280;3803;51.666;7.630;2023-07-09T00:20:39;101153.75;;;22.57;55.74
7524;BME280;3803;51.666;7.630;2023-07-09T00:21:03;101161.69;;;22.58;55.84
7524;BME280;3803;51.666;7.630;2023-07-09T00:21:24;101152.78;;;22.61;55.95
7524;BME280;3803;51.666;7.630;2023-07-09T00:21:47;101168.75;;;22.61;56.18
7524;BME280;3803;51.666;7.630;2023-07-09T00:22:14;101154.59;;;22.59;56.49
7524;BME280;3803;51.666;7.630;2023-07-09T00:22:37;101166.06;;;22.63;56.34
7524;BME280;3803;51.666;7.630;2023-07-09T00:22:57;101163.47;;;22.59;56.45
7524;BME280;3803;51.666;7.630;2023-07-09T00:23:18;101159.09;;;22.55;56.11
7524;BME280;3803;51.666;7.630;2023-07-09T00:23:40;101166.09;;;22.61;56.06
7524;BME280;3803;51.666;7.630;2023-07-09T00:24:02;101165.25;;;22.57;56.24
7524;BME280;3803;51.666;7.630;2023-07-09T00:24:25;101165.25;;;22.59;56.10
7524;BME280;3803;51.666;7.630;2023-07-09T00:24:49;101173.22;;;22.59;56.28
7524;BME280;3803;51.666;7.630;2023-07-09T00:25:11;101151.19;;;22.52;56.16
7524;BME280;3803;51.666;7.630;2023-07-09T00:25:36;101179.47;;;22.56;56.74
7524;BME280;3803;51.666;7.630;2023-07-09T00:25:57;101172.38;;;22.55;56.46
7524;BME280;3803;51.666;7.630;2023-07-09T00:26:19;101164.50;;;22.51;56.42
7524;BME280;3803;51.666;7.630;2023-07-09T00:26:44;101159.22;;;22.48;56.69
7524;BME280;3803;51.666;7.630;2023-07-09T00:27:08;101160.91;;;22.52;56.74
7524;BME280;3803;51.666;7.630;2023-07-09T00:27:29;101166.25;;;22.52;56.83
7524;BME280;3803;51.666;7.630;2023-07-09T00:27:53;101160.09;;;22.46;57.08
7524;BME280;3803;51.666;7.630;2023-07-09T00:28:15;101169.81;;;22.51;57.00
7524;BME280;3803;51.666;7.630;2023-07-09T00:28:35;101169.06;;;22.41;57.18
7524;BME280;3803;51.666;7.630;2023-07-09T00:28:56;101173.53;;;22.40;57.15
7524;BME280;3803;51.666;7.630;2023-07-09T00:29:17;101167.38;;;22.37;57.35
7524;BME280;3803;51.666;7.630;2023-07-09T00:29:39;101158.50;;;22.35;57.35
7524;BME280;3803;51.666;7.630;2023-07-09T00:30:00;101164.72;;;22.35;57.47
7524;BME280;3803;51.666;7.630;2023-07-09T00:30:22;101157.66;;;22.32;57.45
7524;BME280;3803;51.666;7.630;2023-07-09T00:30:47;101171.72;;;22.42;57.49
7524;BME280;3803;51.666;7.630;2023-07-09T00:31:13;101166.47;;;22.36;57.74
7524;BME280;3803;51.666;7.630;2023-07-09T00:31:35;101165.63;;;22.36;57.53
7524;BME280;3803;51.666;7.630;2023-07-09T00:31:59;101166.44;;;22.39;57.68
7524;BME280;3803;51.666;7.630;2023-07-09T00:32:20;101161.16;;;22.36;57.64
7524;BME280;3803;51.666;7.630;2023-07-09T00:32:41;101157.66;;;22.34;57.62
7524;BME280;3803;51.666;7.630;2023-07-09T00:33:03;101156.81;;;22.32;57.60
7524;BME280;3803;51.666;7.630;2023-07-09T00:33:25;101164.66;;;22.38;57.58
7524;BME280;3803;51.666;7.630;2023-07-09T00:33:52;101167.31;;;22.38;57.70
7524;BME280;3803;51.666;7.630;2023-07-09T00:34:14;101155.00;;;22.32;57.56
7524;BME280;3803;51.666;7.630;2023-07-09T00:34:37;101164.72;;;22.37;57.59
7524;BME280;3803;51.666;7.630;2023-07-09T00:34:59;101147.09;;;22.28;57.69
7524;BME280;3803;51.666;7.630;2023-07-09T00:35:22;101156.81;;;22.30;57.58
7524;BME280;3803;51.666;7.630;2023-07-09T00:35:47;101147.13;;;22.25;57.50
7524;BME280;3803;51.666;7.630;2023-07-09T00:36:15;101159.47;;;22.30;57.43
7524;BME280;3803;51.666;7.630;2023-07-09T00:36:36;101156.88;;;22.27;57.37
7524;BME280;3803;51.666;7.630;2023-07-09T00:36:57;101153.34;;;22.25;57.24
7524;BME280;3803;51.666;7.630;2023-07-09T00:37:19;101167.47;;;22.29;57.30
7524;BME280;3803;51.666;7.630;2023-07-09T00:37:43;101163.97;;;22.27;57.28
7524;BME280;3803;51.666;7.630;2023-07-09T00:38:04;101161.34;;;22.21;57.44
7524;BME280;3803;51.666;7.630;2023-07-09T00:38:26;101155.28;;;22.12;57.44
7524;BME280;3803;51.666;7.630;2023-07-09T00:38:47;101161.44;;;22.14;57.34
7524;BME280;3803;51.666;7.630;2023-07-09T00:39:19;101159.66;;;22.16;57.29
7524;BME280;3803;51.666;7.630;2023-07-09T00:39:40;101161.44;;;22.14;57.28
7524;BME280;3803;51.666;7.630;2023-07-09T00:40:02;101151.00;;;22.02;57.27
7524;BME280;3803;51.666;7.630;2023-07-09T00:40:23;101165.13;;;22.05;57.49
7524;BME280;3803;51.666;7.630;2023-07-09T00:40:48;101160.72;;;22.04;57.19
7524;BME280;3803;51.666;7.630;2023-07-09T00:41:19;101170.41;;;22.07;57.45
7524;BME280;3803;51.666;7.630;2023-07-09T00:41:41;101161.66;;;21.99;57.27
7524;BME280;3803;51.666;7.630;2023-07-09T00:42:02;101163.47;;;21.97;57.22
7524;BME280;3803;51.666;7.630;2023-07-09T00:42:23;101174.13;;;21.94;57.39
7524;BME280;3803;51.666;7.630;2023-07-09T00:42:46;101168.78;;;21.95;57.29
7524;BME280;3803;51.666;7.630;2023-07-09T00:43:10;101168.81;;;21.94;57.27
7524;BME280;3803;51.666;7.630;2023-07-09T00:43:36;101161.91;;;21.80;57.43
7524;BME280;3803;51.666;7.630;2023-07-09T00:43:57;101170.69;;;21.85;57.68
7524;BME280;3803;51.666;7.630;2023-07-09T00:44:31;101160.97;;;21.84;57.87
7524;BME280;3803;51.666;7.630;2023-07-09T00:44:54;101166.25;;;21.86;58.08
7524;BME280;3803;51.666;7.630;2023-07-09T00:45:21;101160.16;;;21.79;57.94
7524;BME280;3803;51.666;7.630;2023-07-09T00:45:42;101161.91;;;21.80;58.16
7524;BME280;3803;51.666;7.630;2023-07-09T00:47:15;101164.63;;;21.74;58.11
7524;BME280;3803;51.666;7.630;2023-07-09T00:47:44;101178.75;;;21.77;58.32
7524;BME280;3803;51.666;7.630;2023-07-09T00:48:14;101160.28;;;21.68;58.19
7524;BME280;3803;51.666;7.630;2023-07-09T00:48:36;101161.22;;;21.64;58.42
7524;BME280;3803;51.666;7.630;2023-07-09T00:49:01;101164.75;;;21.66;58.41
7524;BME280;3803;51.666;7.630;2023-07-09T00:49:40;101168.25;;;21.68;58.58
7524;BME280;3803;51.666;7.630;2023-07-09T00:50:21;101170.00;;;21.69;58.34
7524;BME280;3803;51.666;7.630;2023-07-09T00:50:49;101160.34;;;21.62;58.54
7524;BME280;3803;51.666;7.630;2023-07-09T00:51:15;101164.75;;;21.64;58.27
7524;BME280;3803;51.666;7.630;2023-07-09T00:51:40;101163.84;;;21.66;58.37
7524;BME280;3803;51.666;7.630;2023-07-09T00:52:58;101169.22;;;21.62;58.31
7524;BME280;3803;51.666;7.630;2023-07-09T00:53:26;101174.53;;;21.62;58.32
7524;BME280;3803;51.666;7.630;2023-07-09T00:53:53;101167.47;;;21.60;58.65
7524;BME280;3803;51.666;7.630;2023-07-09T00:54:32;101164.81;;;21.60;58.55
7524;BME280;3803;51.666;7.630;2023-07-09T00:54:53;101168.38;;;21.56;58.55
7524;BME280;3803;51.666;7.630;2023-07-09T00:55:19;101168.38;;;21.57;58.80
7524;BME280;3803;51.666;7.630;2023-07-09T00:55:43;101158.69;;;21.53;58.98
7524;BME280;3803;51.666;7.630;2023-07-09T00:56:08;101156.06;;;21.52;59.05
7524;BME280;3803;51.666;7.630;2023-07-09T00:56:44;101160.41;;;21.57;59.04
7524;BME280;3803;51.666;7.630;2023-07-09T00:57:12;101145.44;;;21.50;59.16
7524;BME280;3803;51.666;7.630;2023-07-09T00:57:38;101161.34;;;21.53;59.15
7524;BME280;3803;51.666;7.630;2023-07-09T00:58:05;101155.16;;;21.51;58.99
7524;BME280;3803;51.666;7.630;2023-07-09T00:58:27;101164.84;;;21.57;59.00
7524;BME280;3803;51.666;7.630;2023-07-09T00:58:48;101162.22;;;21.55;58.82
7524;BME280;3803;51.666;7.630;2023-07-09T00:59:12;101158.69;;;21.53;59.06
7524;BME280;3803;51.666;7.630;2023-07-09T00:59:36;101154.31;;;21.50;58.93
7524;BME280;3803;51.666;7.630;2023-07-09T01:00:02;101151.66;;;21.49;58.99
7524;BME280;3803;51.666;7.630;2023-07-09T01:00:37;101164.00;;;21.53;58.85
7524;BME280;3803;51.666;7.630;2023-07-09T01:01:09;101164.00;;;21.53;59.06
7524;BME280;3803;51.666;7.630;2023-07-09T01:01:33;101141.06;;;21.43;58.89
7524;BME280;3803;51.666;7.630;2023-07-09T01:01:56;101157.00;;;21.44;58.97
7524;BME280;3803;51.666;7.630;2023-07-09T01:02:17;101149.94;;;21.42;58.99
7524;BME280;3803;51.666;7.630;2023-07-09T01:02:45;101160.53;;;21.45;58.97
7524;BME280;3803;51.666;7.630;2023-07-09T01:03:10;101163.22;;;21.42;59.27
7524;BME280;3803;51.666;7.630;2023-07-09T01:03:37;101151.78;;;21.36;59.15
7524;BME280;3803;51.666;7.630;2023-07-09T01:04:03;101163.25;;;21.40;59.15
7524;BME280;3803;51.666;7.630;2023-07-09T01:04:27;101153.56;;;21.34;59.14
7524;BME280;3803;51.666;7.630;2023-07-09T01:04:51;101157.09;;;21.33;59.35
7524;BME280;3803;51.666;7.630;2023-07-09T01:05:16;101150.09;;;21.29;59.44
7524;BME280;3803;51.666;7.630;2023-07-09T01:05:38;101147.44;;;21.29;59.45
7524;BME280;3803;51.666;7.630;2023-07-09T01:05:59;101150.03;;;21.32;59.49
7524;BME280;3803;51.666;7.630;2023-07-09T01:06:58;101158.00;;;21.32;59.43
7524;BME280;3803;51.666;7.630;2023-07-09T01:07:12;101146.59;;;21.24;59.32
7524;BME280;3803;51.666;7.630;2023-07-09T01:07:35;101148.38;;;21.22;59.55
7524;BME280;3803;51.666;7.630;2023-07-09T01:07:55;101153.66;;;21.28;59.60
7524;BME280;3803;51.666;7.630;2023-07-09T01:08:19;101159.75;;;21.32;59.74
7524;BME280;3803;51.666;7.630;2023-07-09T01:08:41;101159.81;;;21.27;59.66
7524;BME280;3803;51.666;7.630;2023-07-09T01:09:03;101156.31;;;21.27;59.76
7524;BME280;3803;51.666;7.630;2023-07-09T01:09:25;101151.94;;;21.21;59.63
7524;BME280;3803;51.666;7.630;2023-07-09T01:09:46;101144.84;;;21.21;59.64
7524;BME280;3803;51.666;7.630;2023-07-09T01:10:07;101156.34;;;21.22;59.53
7524;BME280;3803;51.666;7.630;2023-07-09T01:10:28;101156.31;;;21.25;59.53
7524;BME280;3803;51.666;7.630;2023-07-09T01:10:49;101143.13;;;21.16;59.36
7524;BME280;3803;51.666;7.630;2023-07-09T01:11:20;101163.41;;;21.25;59.47
7524;BME280;3803;51.666;7.630;2023-07-09T01:11:41;101162.50;;;21.24;59.41
7524;BME280;3803;51.666;7.630;2023-07-09T01:12:06;101148.50;;;21.13;59.47
7524;BME280;3803;51.666;7.630;2023-07-09T01:12:28;101152.91;;;21.12;59.64
7524;BME280;3803;51.666;7.630;2023-07-09T01:12:51;101159.91;;;21.18;59.69
7524;BME280;3803;51.666;7.630;2023-07-09T01:13:12;101152.06;;;21.08;59.82
7524;BME280;3803;51.666;7.630;2023-07-09T01:13:33;101149.41;;;21.07;59.80
7524;BME280;3803;51.666;7.630;2023-07-09T01:13:57;101152.09;;;21.05;59.92
7524;BME280;3803;51.666;7.630;2023-07-09T01:14:20;101155.66;;;21.04;60.10
7524;BME280;3803;51.666;7.630;2023-07-09T01:14:42;101155.63;;;21.06;60.02
7524;BME280;3803;51.666;7.630;2023-07-09T01:15:03;101157.41;;;21.05;60.02
7524;BME280;3803;51.666;7.630;2023-07-09T01:15:24;101157.38;;;21.07;60.21
7524;BME280;3803;51.666;7.630;2023-07-09T01:15:46;101158.28;;;21.06;60.18
7524;BME280;3803;51.666;7.630;2023-07-09T01:16:07;101157.38;;;21.07;60.28
7524;BME280;3803;51.666;7.630;2023-07-09T01:16:31;101165.28;;;21.13;60.27
7524;BME280;3803;51.666;7.630;2023-07-09T01:16:59;101154.72;;;21.07;60.31
7524;BME280;3803;51.666;7.630;2023-07-09T01:17:20;101160.03;;;21.07;60.23
7524;BME280;3803;51.666;7.630;2023-07-09T01:17:41;101159.16;;;21.06;60.20
7524;BME280;3803;51.666;7.630;2023-07-09T01:18:04;101164.44;;;21.09;60.30
7524;BME280;3803;51.666;7.630;2023-07-09T01:18:25;101159.16;;;21.06;60.03
7524;BME280;3803;51.666;7.630;2023-07-09T01:18:46;101163.63;;;21.01;60.03
7524;BME280;3803;51.666;7.630;2023-07-09T01:19:06;101158.31;;;21.01;60.14
7524;BME280;3803;51.666;7.630;2023-07-09T01:19:30;101148.66;;;20.94;60.02
7524;BME280;3803;51.666;7.630;2023-07-09T01:19:52;101161.00;;;20.96;60.08
7524;BME280;3803;51.666;7.630;2023-07-09T01:20:20;101167.16;;;21.00;60.32
7524;BME280;3803;51.666;7.630;2023-07-09T01:20:41;101165.44;;;20.96;60.09
7524;BME280;3803;51.666;7.630;2023-07-09T01:21:08;101168.06;;;20.99;60.42
7524;BME280;3803;51.666;7.630;2023-07-09T01:21:35;101167.22;;;20.95;60.25
7524;BME280;3803;51.666;7.630;2023-07-09T01:21:58;101169.88;;;20.94;60.48
7524;BME280;3803;51.666;7.630;2023-07-09T01:22:22;101168.13;;;20.93;60.51
7524;BME280;3803;51.666;7.630;2023-07-09T01:22:43;101150.50;;;20.86;60.24
7524;BME280;3803;51.666;7.630;2023-07-09T01:23:04;101155.81;;;20.86;60.55
7524;BME280;3803;51.666;7.630;2023-07-09T01:23:26;101167.31;;;20.85;60.57
7524;BME280;3803;51.666;7.630;2023-07-09T01:23:49;101167.25;;;20.89;60.49
7524;BME280;3803;51.666;7.630;2023-07-09T01:24:46;101170.81;;;20.90;60.75
7524;BME280;3803;51.666;7.630;2023-07-09T01:24:59;101172.56;;;20.91;60.84
7524;BME280;3803;51.666;7.630;2023-07-09T01:25:24;101165.50;;;20.88;60.68
7524;BME280;3803;51.666;7.630;2023-07-09T01:25:46;101168.16;;;20.87;60.82
7524;BME280;3803;51.666;7.630;2023-07-09T01:26:18;101171.72;;;20.89;60.81
7524;BME280;3803;51.666;7.630;2023-07-09T01:26:41;101169.09;;;20.82;60.93
7524;BME280;3803;51.666;7.630;2023-07-09T01:27:04;101170.81;;;20.87;60.93
7524;BME280;3803;51.666;7.630;2023-07-09T01:27:33;101162.91;;;20.84;60.91
7524;BME280;3803;51.666;7.630;2023-07-09T01:27:55;101162.03;;;20.81;60.98
7524;BME280;3803;51.666;7.630;2023-07-09T01:28:15;101166.41;;;20.86;61.00
7524;BME280;3803;51.666;7.630;2023-07-09T01:28:38;101162.88;;;20.87;61.09
7524;BME280;3803;51.666;7.630;2023-07-09T01:29:05;101160.25;;;20.85;61.14
7524;BME280;3803;51.666;7.630;2023-07-09T01:29:30;101162.00;;;20.83;61.34
7524;BME280;3803;51.666;7.630;2023-07-09T01:29:54;101173.44;;;20.91;61.25
7524;BME280;3803;51.666;7.630;2023-07-09T01:30:23;101152.28;;;20.84;61.35
7524;BME280;3803;51.666;7.630;2023-07-09T01:30:45;101161.94;;;20.92;61.13
7524;BME280;3803;51.666;7.630;2023-07-09T01:31:05;101152.28;;;20.85;61.17
7524;BME280;3803;51.666;7.630;2023-07-09T01:31:26;101168.13;;;20.91;61.28
7524;BME280;3803;51.666;7.630;2023-07-09T01:31:47;101156.66;;;20.88;61.18
7524;BME280;3803;51.666;7.630;2023-07-09T01:32:08;101169.88;;;20.94;61.07
7524;BME280;3803;51.666;7.630;2023-07-09T01:32:30;101168.09;;;20.96;61.06
7524;BME280;3803;51.666;7.630;2023-07-09T01:32:51;101158.41;;;20.90;61.00
7524;BME280;3803;51.666;7.630;2023-07-09T01:33:16;101162.00;;;20.85;61.13
7524;BME280;3803;51.666;7.630;2023-07-09T01:33:38;101165.56;;;20.85;61.42
7524;BME280;3803;51.666;7.630;2023-07-09T01:34:02;101159.41;;;20.78;61.39
7524;BME280;3803;51.666;7.630;2023-07-09T01:34:22;101155.88;;;20.76;61.58
7524;BME280;3803;51.666;7.630;2023-07-09T01:34:50;101155.03;;;20.71;61.64
7524;BME280;3803;51.666;7.630;2023-07-09T01:35:15;101159.44;;;20.74;61.59
7524;BME280;3803;51.666;7.630;2023-07-09T01:35:38;101166.50;;;20.76;61.72
7524;BME280;3803;51.666;7.630;2023-07-09T01:36:01;101159.44;;;20.72;61.60
7524;BME280;3803;51.666;7.630;2023-07-09T01:36:22;101157.69;;;20.68;61.73
7524;BME280;3803;51.666;7.630;2023-07-09T01:36:43;101161.25;;;20.67;61.69
7524;BME280;3803;51.666;7.630;2023-07-09T01:37:04;101161.25;;;20.70;61.77
7524;BME280;3803;51.666;7.630;2023-07-09T01:37:27;101172.72;;;20.69;61.95
7524;BME280;3803;51.666;7.630;2023-07-09T01:37:49;101138.34;;;20.57;62.04
7524;BME280;3803;51.666;7.630;2023-07-09T01:38:09;101163.00;;;20.68;62.08
7524;BME280;3803;51.666;7.630;2023-07-09T01:38:30;101156.88;;;20.60;62.11
7524;BME280;3803;51.666;7.630;2023-07-09T01:38:52;101163.03;;;20.62;62.16
7524;BME280;3803;51.666;7.630;2023-07-09T01:39:14;101150.69;;;20.61;62.11
7524;BME280;3803;51.666;7.630;2023-07-09T01:39:34;101155.09;;;20.60;62.13
7524;BME280;3803;51.666;7.630;2023-07-09T01:39:56;101155.97;;;20.61;62.21
7524;BME280;3803;51.666;7.630;2023-07-09T01:40:19;101156.88;;;20.58;62.17
7524;BME280;3803;51.666;7.630;2023-07-09T01:40:41;101149.78;;;20.60;62.21
7524;BME280;3803;51.666;7.630;2023-07-09T01:41:02;101158.59;;;20.65;62.15
7524;BME280;3803;51.666;7.630;2023-07-09T01:41:23;101165.66;;;20.68;62.06
7524;BME280;3803;51.666;7.630;2023-07-09T01:41:45;101165.69;;;20.65;62.19
7524;BME280;3803;51.666;7.630;2023-07-09T01:42:08;101160.38;;;20.63;62.12
7524;BME280;3803;51.666;7.630;2023-07-09T01:42:29;101149.81;;;20.59;62.17
7524;BME280;3803;51.666;7.630;2023-07-09T01:42:51;101159.53;;;20.60;61.81
7524;BME280;3803;51.666;7.630;2023-07-09T01:43:12;101163.94;;;20.61;62.13
7524;BME280;3803;51.666;7.630;2023-07-09T01:43:33;101163.06;;;20.59;62.07
7524;BME280;3803;51.666;7.630;2023-07-09T01:43:54;101159.53;;;20.58;62.02
7524;BME280;3803;51.666;7.630;2023-07-09T01:44:15;101150.75;;;20.51;62.01
7524;BME280;3803;51.666;7.630;2023-07-09T01:44:37;101155.19;;;20.49;62.02
7524;BME280;3803;51.666;7.630;2023-07-09T01:44:59;101156.06;;;20.48;62.21
7524;BME280;3803;51.666;7.630;2023-07-09T01:45:21;101156.94;;;20.47;62.41
7524;BME280;3803;51.666;7.630;2023-07-09T01:45:42;101164.00;;;20.50;62.24
7524;BME280;3803;51.666;7.630;2023-07-09T01:46:03;101163.16;;;20.45;62.14
7524;BME280;3803;51.666;7.630;2023-07-09T01:46:23;101156.13;;;20.42;62.52
7524;BME280;3803;51.666;7.630;2023-07-09T01:46:44;101167.59;;;20.46;62.44
7524;BME280;3803;51.666;7.630;2023-07-09T01:47:05;101164.94;;;20.44;62.27
7524;BME280;3803;51.666;7.630;2023-07-09T01:47:26;101159.69;;;20.38;62.42
7524;BME280;3803;51.666;7.630;2023-07-09T01:47:47;101159.69;;;20.41;62.60
7524;BME280;3803;51.666;7.630;2023-07-09T01:48:08;101159.72;;;20.35;62.56
7524;BME280;3803;51.666;7.630;2023-07-09T01:48:36;101160.59;;;20.34;62.72
7524;BME280;3803;51.666;7.630;2023-07-09T01:49:03;101170.28;;;20.38;62.54
7524;BME280;3803;51.666;7.630;2023-07-09T01:49:26;101169.41;;;20.37;62.68
7524;BME280;3803;51.666;7.630;2023-07-09T01:49:51;101175.56;;;20.38;62.72
7524;BME280;3803;51.666;7.630;2023-07-09T01:50:17;101169.41;;;20.34;62.82
7524;BME280;3803;51.666;7.630;2023-07-09T01:50:38;101159.75;;;20.28;62.83
7524;BME280;3803;51.666;7.630;2023-07-09T01:51:01;101167.66;;;20.32;62.83
7524;BME280;3803;51.666;7.630;2023-07-09T01:51:23;101169.44;;;20.30;62.87
7524;BME280;3803;51.666;7.630;2023-07-09T01:51:45;101178.25;;;20.33;62.95
7524;BME280;3803;51.666;7.630;2023-07-09T01:52:07;101172.97;;;20.33;62.77
7524;BME280;3803;51.666;7.630;2023-07-09T01:52:31;101172.09;;;20.31;63.03
7524;BME280;3803;51.666;7.630;2023-07-09T01:52:52;101176.53;;;20.29;63.02
7524;BME280;3803;51.666;7.630;2023-07-09T01:53:15;101161.53;;;20.23;62.84
7524;BME280;3803;51.666;7.630;2023-07-09T01:53:40;101175.66;;;20.27;62.85
7524;BME280;3803;51.666;7.630;2023-07-09T01:54:02;101166.88;;;20.20;62.79
7524;BME280;3803;51.666;7.630;2023-07-09T01:54:23;101179.19;;;20.27;62.87
7524;BME280;3803;51.666;7.630;2023-07-09T01:54:44;101170.38;;;20.24;62.89
7524;BME280;3803;51.666;7.630;2023-07-09T01:55:11;101165.06;;;20.22;62.94
7524;BME280;3803;51.666;7.630;2023-07-09T01:55:33;101176.53;;;20.26;63.01
7524;BME280;3803;51.666;7.630;2023-07-09T01:55:54;101163.28;;;20.27;63.00
7524;BME280;3803;51.666;7.630;2023-07-09T01:56:15;101160.63;;;20.26;62.68
7524;BME280;3803;51.666;7.630;2023-07-09T01:56:35;101172.94;;;20.36;62.56
7524;BME280;3803;51.666;7.630;2023-07-09T01:57:17;101177.31;;;20.44;62.63
7524;BME280;3803;51.666;7.630;2023-07-09T01:57:43;101163.22;;;20.37;62.64
7524;BME280;3803;51.666;7.630;2023-07-09T01:58:05;101165.84;;;20.41;62.64
7524;BME280;3803;51.666;7.630;2023-07-09T01:58:27;101163.19;;;20.40;62.64
7524;BME280;3803;51.666;7.630;2023-07-09T01:58:52;101179.03;;;20.51;62.62
7524;BME280;3803;51.666;7.630;2023-07-09T01:59:14;101168.44;;;20.46;62.64
7524;BME280;3803;51.666;7.630;2023-07-09T01:59:34;101156.13;;;20.42;62.62
7524;BME280;3803;51.666;7.630;2023-07-09T02:00:07;101157.00;;;20.46;62.51
7524;BME280;3803;51.666;7.630;2023-07-09T02:00:37;101160.47;;;20.51;62.59
7524;BME280;3803;51.666;7.630;2023-07-09T02:01:02;101164.00;;;20.51;62.29
7524;BME280;3803;51.666;7.630;2023-07-09T02:01:23;101160.47;;;20.52;62.41
7524;BME280;3803;51.666;7.630;2023-07-09T02:01:46;101159.56;;;20.53;62.44
7524;BME280;3803;51.666;7.630;2023-07-09T02:02:08;101157.81;;;20.52;62.22
7524;BME280;3803;51.666;7.630;2023-07-09T02:02:29;101155.19;;;20.49;62.20
7524;BME280;3803;51.666;7.630;2023-07-09T02:02:49;101160.47;;;20.52;62.18
7524;BME280;3803;51.666;7.630;2023-07-09T02:03:10;101151.66;;;20.47;62.32
7524;BME280;3803;51.666;7.630;2023-07-09T02:03:31;101155.19;;;20.48;62.41
7524;BME280;3803;51.666;7.630;2023-07-09T02:03:52;101161.34;;;20.48;62.54
7524;BME280;3803;51.666;7.630;2023-07-09T02:04:13;101163.13;;;20.52;62.69
7524;BME280;3803;51.666;7.630;2023-07-09T02:04:34;101165.75;;;20.52;62.59
7524;BME280;3803;51.666;7.630;2023-07-09T02:04:55;101151.69;;;20.46;62.57
7524;BME280;3803;51.666;7.630;2023-07-09T02:05:18;101157.84;;;20.48;62.56
7524;BME280;3803;51.666;7.630;2023-07-09T02:05:40;101151.69;;;20.44;62.54
7524;BME280;3803;51.666;7.630;2023-07-09T02:06:01;101149.03;;;20.44;62.44
7524;BME280;3803;51.666;7.630;2023-07-09T02:06:29;101150.78;;;20.45;62.51
7524;BME280;3803;51.666;7.630;2023-07-09T02:06:52;101146.38;;;20.44;62.27
7524;BME280;3803;51.666;7.630;2023-07-09T02:07:13;101161.34;;;20.48;62.18
7524;BME280;3803;51.666;7.630;2023-07-09T02:07:34;101160.50;;;20.45;62.13